KJYR

York Municipal Airport

York, Nebraska, USA
METAR KJYR 201515Z AUTO 33019G25KT 10SM SCT090 M12/M15 A3010 RMK AO2
Observed Flight Rules
Feb-20 @ 15:15 UTC (2 hours ago) Visual Flight Rules
Wind Visibility Clouds
330° at 19 knots
 Gusting to 25 knots
10 miles
  • Scattered at 9,000' AGL
Temperatures Readings
Current -12°C / 10°F
Dewpoint -15°C / 5°F
Humidity 79%
Altimeter 30.1" Hg
Pressure 1019 hPa
Elevation 509
METAR KJYR 201515Z AUTO 33019G25KT 10SM SCT090 M12/M15 A3010 RMK AO2
Observed Flight Rules
Feb-20 @ 15:15 UTC
(2 hours ago)
VFR
Wind Visibility
330° at 19 knots
 Gusting to 25 knots
10 miles
Clouds
  • Scattered at 9,000' AGL
Temperature Dewpoint
-12°C / 10°F -15°C / 5°F
Humidity Altimeter Pressure
79% 30.1" Hg 1019 hPa